Time;durP1;ratioP1;P1;durP2;ratioP2;P2;SDS_P1;SDS_P2;PMS_P1;PMS_P2;Temp;Humidity;BMP_temperature;BMP_pressure;BME280_temperature;BME280_humidity;BME280_pressure;Samples;Min_cycle;Max_cycle;Signal;HPM_P1;HPM_P2
2021/12/16 00:08:36;;;;;;;10.40;6.03;;;;;;;-0.91;79.61;99434.84;4752856;30;20439;-70
2021/12/16 00:19:25;;;;;;;14.27;7.65;;;;;;;-1.03;80.11;99437.81;4752477;30;20059;-69
2021/12/16 00:19:41;;;;;;;12.25;6.55;;;;;;;-0.95;80.02;99418.38;4750817;30;20065;-67
2021/12/16 00:35:36;;;;;;;8.02;5.18;;;;;;;-0.86;79.42;99381.47;4768627;29;20023;-67
2021/12/16 00:38:00;;;;;;;10.90;5.55;;;;;;;-0.87;79.76;99381.50;4768542;29;20063;-70
2021/12/16 00:40:25;;;;;;;10.48;5.80;;;;;;;-0.93;79.93;99384.31;4767868;29;20069;-67
2021/12/16 00:42:57;;;;;;;10.43;6.47;;;;;;;-0.94;79.97;99387.84;4767956;29;20146;-71
2021/12/16 00:45:55;;;;;;;14.10;6.25;;;;;;;-0.92;80.09;99372.97;4810071;29;20509;-68
2021/12/16 00:48:47;;;;;;;14.93;6.43;;;;;;;-0.85;80.20;99369.25;4793408;29;20495;-70
2021/12/16 00:54:11;;;;;;;12.45;5.68;;;;;;;-0.87;79.76;99364.06;4808286;29;20112;-69
2021/12/16 00:56:51;;;;;;;10.27;5.78;;;;;;;-0.73;79.45;99347.94;4792848;29;20048;-70
2021/12/16 00:59:21;;;;;;;12.10;6.05;;;;;;;-0.86;79.70;99339.59;4808241;29;20053;-68
2021/12/16 01:04:49;;;;;;;10.13;6.13;;;;;;;-0.88;79.82;99333.56;4824562;29;20408;-67
2021/12/16 01:08:05;;;;;;;12.23;6.40;;;;;;;-0.95;79.91;99325.94;4824373;29;20049;-67
2021/12/16 01:35:23;;;;;;;7.55;5.07;;;;;;;-0.75;79.67;99251.16;4785473;29;20079;-66
2021/12/16 01:45:36;;;;;;;9.50;6.07;;;;;;;-0.87;80.05;99221.91;4770120;29;20106;-67
2021/12/16 01:50:54;;;;;;;7.70;5.05;;;;;;;-0.70;79.38;99201.28;4785179;29;20088;-66
2021/12/16 01:53:38;;;;;;;8.30;4.50;;;;;;;-0.69;79.16;99203.00;4804093;29;20792;-68
2021/12/16 01:56:37;;;;;;;8.18;4.80;;;;;;;-0.86;79.76;99197.44;4808409;29;20149;-65
2021/12/16 01:59:05;;;;;;;7.60;4.53;;;;;;;-0.97;80.56;99199.56;4816355;29;20029;-64
2021/12/16 02:01:33;;;;;;;7.45;4.70;;;;;;;-0.94;80.78;99197.69;4846490;29;20052;-68
2021/12/16 02:04:12;;;;;;;8.82;5.40;;;;;;;-0.97;80.47;99200.41;4851660;29;20111;-67
2021/12/16 02:09:41;;;;;;;7.15;4.10;;;;;;;-0.74;80.26;99195.28;4849848;29;20047;-73
2021/12/16 02:36:38;;;;;;;7.78;4.78;;;;;;;-1.34;85.43;99111.78;4864040;29;20049;-72
2021/12/16 02:39:23;;;;;;;8.85;4.45;;;;;;;-1.36;87.10;99103.16;4847217;29;20562;-69
2021/12/16 02:41:53;;;;;;;10.25;5.40;;;;;;;-1.48;87.95;99111.41;4847252;29;20056;-70
2021/12/16 02:49:33;;;;;;;8.73;5.05;;;;;;;-1.44;89.52;99101.69;4863709;29;20703;-71
2021/12/16 02:51:59;;;;;;;10.93;6.03;;;;;;;-1.44;89.38;99097.31;4831921;29;20681;-70
2021/12/16 02:54:26;;;;;;;7.00;4.13;;;;;;;-1.44;89.50;99113.00;4823830;29;20092;-73
2021/12/16 02:56:51;;;;;;;9.00;4.88;;;;;;;-1.30;89.38;99115.19;4828544;29;20088;-67
2021/12/16 02:59:19;;;;;;;8.48;4.10;;;;;;;-1.27;89.28;99095.03;4845049;29;20079;-69
2021/12/16 03:01:51;;;;;;;7.20;4.53;;;;;;;-1.32;89.25;99099.53;4828476;29;20080;-70
2021/12/16 03:04:18;;;;;;;7.78;4.55;;;;;;;-1.27;88.54;99089.78;4828411;29;20096;-69
2021/12/16 03:06:45;;;;;;;7.68;4.95;;;;;;;-1.28;88.60;99087.22;4844569;29;20053;-70
2021/12/16 03:09:14;;;;;;;7.10;4.18;;;;;;;-1.22;88.45;99076.53;4795225;29;20389;-70
2021/12/16 03:11:51;;;;;;;8.35;4.85;;;;;;;-1.33;87.97;99062.97;4825767;29;20053;-67
2021/12/16 03:14:27;;;;;;;7.82;5.05;;;;;;;-1.33;87.98;99049.91;4825718;29;20129;-68
2021/12/16 03:20:09;;;;;;;5.95;3.80;;;;;;;-1.25;87.92;99068.81;4752261;30;20154;-66
2021/12/16 03:31:22;;;;;;;6.22;4.30;;;;;;;-1.22;87.44;99066.09;4752206;29;20054;-66
2021/12/16 03:38:48;;;;;;;6.40;4.10;;;;;;;-1.25;87.84;99043.53;4737179;30;20047;-73
2021/12/16 03:41:14;;;;;;;7.10;4.63;;;;;;;-1.23;87.67;99041.69;4752663;30;20058;-73
2021/12/16 03:43:42;;;;;;;6.28;3.67;;;;;;;-1.19;88.13;99038.09;4753185;30;20063;-76
2021/12/16 03:48:46;;;;;;;8.25;4.80;;;;;;;-1.11;87.94;99040.44;4752340;30;20051;-75
2021/12/16 03:51:27;;;;;;;5.97;3.92;;;;;;;-1.13;87.77;99050.13;4737689;30;20194;-73
2021/12/16 03:54:00;;;;;;;8.55;4.30;;;;;;;-1.09;87.87;99051.69;4752051;30;20059;-72
2021/12/16 03:56:28;;;;;;;8.05;4.53;;;;;;;-1.12;87.79;99042.19;4781278;29;20530;-72
2021/12/16 03:59:17;;;;;;;7.40;4.65;;;;;;;-1.21;87.80;99042.50;4797177;29;20542;-72
2021/12/16 04:01:54;;;;;;;5.40;3.65;;;;;;;-1.06;87.87;99040.28;4796324;29;20072;-71
2021/12/16 04:04:27;;;;;;;5.38;3.15;;;;;;;-1.04;87.57;99038.47;4810574;29;20415;-68
2021/12/16 11:26:56;;;;;;;6.38;4.15;;;;;;;0.90;85.88;98608.53;5103703;24;20110;-74
2021/12/16 11:29:31;;;;;;;7.90;4.50;;;;;;;0.96;85.67;98615.25;4863830;29;20048;-74
2021/12/16 11:31:57;;;;;;;6.30;4.28;;;;;;;0.95;85.80;98597.78;4863408;29;20052;-72
2021/12/16 11:34:21;;;;;;;11.40;5.57;;;;;;;0.87;85.95;98595.56;4863748;29;20494;-74
2021/12/16 11:36:53;;;;;;;6.35;4.13;;;;;;;0.92;85.89;98598.78;4863436;29;20059;-71
2021/12/16 11:39:29;;;;;;;5.93;3.80;;;;;;;0.96;86.00;98600.34;4863589;29;20655;-73
2021/12/16 11:42:04;;;;;;;9.77;4.10;;;;;;;0.94;86.03;98591.69;4831256;29;20056;-71
2021/12/16 11:44:40;;;;;;;11.50;4.50;;;;;;;0.94;85.80;98596.09;4863267;29;20045;-71
2021/12/16 11:47:19;;;;;;;6.05;4.07;;;;;;;0.95;85.69;98606.53;4862100;29;20056;-70
2021/12/16 11:49:48;;;;;;;6.63;4.07;;;;;;;0.92;85.63;98598.78;4846123;29;20083;-71
2021/12/16 11:52:21;;;;;;;6.68;4.38;;;;;;;0.90;85.81;98605.06;4830760;29;20052;-72
2021/12/16 11:54:56;;;;;;;7.68;4.65;;;;;;;0.81;85.94;98608.09;4846157;29;20522;-71
2021/12/16 11:57:25;;;;;;;9.90;4.57;;;;;;;0.85;86.40;98607.03;4863279;29;20135;-72
2021/12/16 11:59:55;;;;;;;10.68;4.70;;;;;;;0.92;86.45;98609.28;4863070;29;20055;-72
2021/12/16 12:02:20;;;;;;;6.55;4.88;;;;;;;0.93;86.14;98603.13;4849358;29;20053;-72
2021/12/16 12:04:44;;;;;;;8.13;4.63;;;;;;;0.91;86.36;98602.34;4877934;29;20036;-73
2021/12/16 12:07:12;;;;;;;14.85;5.05;;;;;;;0.88;86.07;98607.75;4861858;29;20089;-77
2021/12/16 12:10:00;;;;;;;9.95;5.35;;;;;;;0.88;85.99;98606.91;4860984;29;20044;-80
2021/12/16 12:12:41;;;;;;;6.65;4.15;;;;;;;0.91;85.85;98601.47;4864618;29;20056;-73
2021/12/16 12:15:09;;;;;;;9.07;4.88;;;;;;;0.93;86.15;98604.88;4847929;29;20554;-75
2021/12/16 12:17:44;;;;;;;9.15;3.95;;;;;;;0.98;86.08;98593.25;4847813;29;20048;-73
2021/12/16 12:20:09;;;;;;;9.07;4.47;;;;;;;0.96;85.99;98599.50;4863738;29;20053;-73
2021/12/16 12:22:34;;;;;;;8.70;4.90;;;;;;;0.88;85.96;98599.03;4864894;29;20432;-71
2021/12/16 12:24:59;;;;;;;10.32;5.20;;;;;;;0.84;85.91;98590.44;4862657;29;20131;-73
2021/12/16 12:27:27;;;;;;;5.55;4.13;;;;;;;0.91;86.00;98607.59;4830245;29;20088;-72
2021/12/16 12:29:57;;;;;;;6.53;4.45;;;;;;;0.91;86.11;98588.38;4863925;29;20040;-70
2021/12/16 12:32:28;;;;;;;7.85;4.88;;;;;;;0.90;86.02;98587.53;4844916;29;20136;-70
2021/12/16 12:35:12;;;;;;;7.63;4.45;;;;;;;0.99;86.06;98589.72;4804061;29;20122;-70
2021/12/16 12:37:49;;;;;;;7.20;4.63;;;;;;;0.99;86.26;98573.97;4843697;29;20060;-70
2021/12/16 12:40:25;;;;;;;4.20;3.20;;;;;;;0.99;86.07;98566.09;4827179;29;20128;-72
2021/12/16 12:42:53;;;;;;;5.05;3.58;;;;;;;1.00;86.16;98559.91;4844381;29;20185;-74
2021/12/16 12:45:23;;;;;;;7.75;3.75;;;;;;;0.99;86.06;98566.09;4845835;29;20261;-72
2021/12/16 12:47:52;;;;;;;7.40;3.72;;;;;;;0.92;86.04;98567.31;4865069;29;20063;-74
2021/12/16 12:50:28;;;;;;;6.47;4.13;;;;;;;0.93;86.14;98562.91;4831639;29;20085;-74
2021/12/16 12:52:54;;;;;;;5.03;3.00;;;;;;;0.91;85.91;98580.50;4862800;29;20052;-75
2021/12/16 12:55:32;;;;;;;4.68;3.13;;;;;;;0.92;86.37;98562.06;4846247;29;20040;-71
2021/12/16 12:58:12;;;;;;;11.30;3.10;;;;;;;1.00;85.79;98570.41;4846752;29;20407;-68
2021/12/16 13:00:46;;;;;;;5.60;3.60;;;;;;;0.88;86.06;98547.41;4845997;29;20059;-66
2021/12/16 13:03:18;;;;;;;7.45;4.07;;;;;;;0.92;86.45;98545.47;4845653;29;20468;-67
2021/12/16 13:06:07;;;;;;;8.55;4.10;;;;;;;0.83;86.58;98544.16;4863192;29;20100;-70
2021/12/16 13:08:36;;;;;;;4.03;2.92;;;;;;;0.80;86.63;98541.66;4840480;29;20075;-68
2021/12/16 13:11:12;;;;;;;3.58;2.75;;;;;;;0.74;86.70;98536.75;4846645;29;20040;-69
2021/12/16 13:13:56;;;;;;;6.35;3.70;;;;;;;0.74;86.77;98547.22;4845325;29;20076;-71
2021/12/16 13:16:51;;;;;;;14.35;3.67;;;;;;;0.81;86.75;98532.03;4861899;29;20486;-71
2021/12/16 13:28:13;;;;;;;6.90;3.47;;;;;;;0.88;86.89;98534.28;4861748;29;20064;-72
2021/12/16 13:30:51;;;;;;;5.85;3.45;;;;;;;0.82;86.70;98544.22;4829024;29;20246;-72
2021/12/16 13:36:05;;;;;;;5.40;2.78;;;;;;;0.84;86.71;98527.50;4844799;29;20044;-72
2021/12/16 13:38:40;;;;;;;6.10;3.10;;;;;;;0.89;86.55;98519.41;4861785;29;20208;-71
2021/12/16 13:41:11;;;;;;;4.95;3.13;;;;;;;0.83;86.68;98515.28;4829849;29;20553;-72
2021/12/16 13:43:38;;;;;;;4.90;2.80;;;;;;;0.90;86.36;98524.56;4862089;29;20503;-73
2021/12/16 14:10:02;;;;;;;9.98;3.70;;;;;;;1.15;85.78;98481.31;4841895;29;20056;-72
2021/12/16 14:13:50;;;;;;;4.72;3.33;;;;;;;1.11;85.37;98485.88;4844173;29;20073;-72
2021/12/16 14:16:27;;;;;;;5.32;3.40;;;;;;;1.16;85.64;98473.34;4843865;29;20526;-72
2021/12/16 14:25:12;;;;;;;3.70;2.40;;;;;;;1.00;85.55;98454.09;4861634;29;20423;-71
2021/12/16 14:49:48;;;;;;;5.97;3.05;;;;;;;1.14;85.53;98450.72;4821609;29;20056;-74
2021/12/16 14:52:17;;;;;;;6.93;3.83;;;;;;;1.15;85.55;98447.19;4806207;29;20049;-72
2021/12/16 14:54:52;;;;;;;4.57;3.65;;;;;;;1.14;85.39;98450.72;4821572;29;20060;-73
2021/12/16 14:57:30;;;;;;;3.80;3.08;;;;;;;1.23;86.00;98447.66;4806354;29;20532;-73
2021/12/16 14:59:56;;;;;;;4.03;3.00;;;;;;;1.15;85.83;98457.69;4791222;29;20069;-73
2021/12/16 15:02:28;;;;;;;5.03;3.30;;;;;;;1.21;85.67;98449.50;4791625;29;20057;-74
2021/12/16 15:04:53;;;;;;;4.70;3.22;;;;;;;1.18;84.89;98434.75;4791187;29;20048;-72
2021/12/16 15:07:19;;;;;;;4.90;3.08;;;;;;;1.13;85.18;98443.81;4806248;29;20128;-72
2021/12/16 15:09:44;;;;;;;9.55;3.33;;;;;;;1.16;85.21;98441.00;4859702;29;20068;-72
2021/12/16 15:12:38;;;;;;;5.70;3.20;;;;;;;1.13;85.36;98438.56;4828902;29;20100;-72
2021/12/16 15:45:17;;;;;;;3.30;2.70;;;;;;;1.05;85.89;98434.56;4864184;29;20041;-73
2021/12/16 15:47:47;;;;;;;3.08;2.67;;;;;;;1.07;85.75;98429.22;4847174;29;20040;-72
2021/12/16 15:50:16;;;;;;;6.63;2.88;;;;;;;1.07;85.24;98427.44;4831544;29;20055;-75
2021/12/16 15:52:45;;;;;;;5.43;3.35;;;;;;;1.03;85.66;98432.94;4847021;29;20045;-74
2021/12/16 15:55:21;;;;;;;5.18;3.47;;;;;;;0.97;85.76;98431.47;4846521;29;20055;-75
2021/12/16 15:57:46;;;;;;;5.43;3.33;;;;;;;0.96;85.88;98423.69;4831002;29;20051;-73
2021/12/16 16:00:17;;;;;;;5.03;3.65;;;;;;;1.03;86.04;98423.28;4846769;29;20052;-72
2021/12/16 16:02:42;;;;;;;6.15;3.30;;;;;;;1.00;85.69;98414.75;4846457;29;20040;-72
2021/12/16 16:05:08;;;;;;;3.85;2.80;;;;;;;0.94;85.56;98421.13;4830977;29;20036;-72
2021/12/16 16:07:35;;;;;;;4.00;2.97;;;;;;;0.92;85.43;98403.78;4846605;29;20041;-72
2021/12/16 16:10:00;;;;;;;4.68;2.38;;;;;;;0.96;86.00;98408.78;4864319;29;20496;-71
2021/12/16 16:12:31;;;;;;;5.80;3.15;;;;;;;0.87;85.67;98403.19;4866298;29;20047;-70
2021/12/16 16:15:01;;;;;;;6.88;3.03;;;;;;;0.86;85.73;98401.50;4822340;29;20699;-70
2021/12/16 16:17:31;;;;;;;4.13;3.22;;;;;;;0.77;85.51;98402.81;4824727;29;20056;-74
2021/12/16 16:19:57;;;;;;;6.78;2.70;;;;;;;0.77;85.35;98407.22;4835899;29;20044;-74
2021/12/16 16:22:22;;;;;;;4.18;2.72;;;;;;;0.79;85.67;98408.81;4850239;29;20176;-73
2021/12/16 16:24:51;;;;;;;5.75;3.53;;;;;;;0.77;85.74;98407.22;4821314;29;20725;-75
2021/12/16 16:27:27;;;;;;;5.20;3.28;;;;;;;0.76;85.98;98413.38;4810036;29;20513;-74
2021/12/16 16:29:57;;;;;;;4.25;2.72;;;;;;;0.79;85.96;98405.38;4825423;29;20049;-73
2021/12/16 16:32:48;;;;;;;3.58;2.90;;;;;;;0.85;86.33;98408.50;4825149;29;20085;-73
2021/12/16 16:35:15;;;;;;;2.83;2.50;;;;;;;0.78;86.18;98395.78;4826079;29;20079;-72
2021/12/16 16:37:40;;;;;;;2.72;1.83;;;;;;;0.76;86.61;98393.25;4825103;29;20050;-73
2021/12/16 16:40:08;;;;;;;5.55;3.03;;;;;;;0.76;86.81;98390.63;4794827;29;20070;-73
2021/12/16 16:42:41;;;;;;;3.42;2.42;;;;;;;0.80;86.42;98393.91;4809840;29;20104;-73
2021/12/16 16:45:20;;;;;;;4.63;3.13;;;;;;;0.83;86.25;98385.91;4826315;29;20564;-73
2021/12/16 16:47:51;;;;;;;4.68;2.95;;;;;;;0.75;86.30;98380.22;4826762;29;20489;-73
2021/12/16 16:50:19;;;;;;;6.57;3.22;;;;;;;0.75;86.37;98380.22;4810171;29;20532;-73
2021/12/16 16:52:50;;;;;;;5.30;2.60;;;;;;;0.80;86.33;98372.94;4826965;29;20496;-75
2021/12/16 16:55:17;;;;;;;4.90;3.13;;;;;;;0.70;86.54;98375.19;4823700;29;20045;-73
2021/12/16 16:57:50;;;;;;;8.38;3.00;;;;;;;0.72;87.00;98357.59;4809955;29;20217;-71
2021/12/16 17:00:21;;;;;;;2.53;2.15;;;;;;;0.79;86.99;98361.59;4824446;29;20128;-69
2021/12/16 17:02:51;;;;;;;4.43;2.83;;;;;;;0.81;86.93;98364.13;4809981;29;20041;-76
2021/12/16 17:05:25;;;;;;;5.03;3.05;;;;;;;0.73;87.76;98361.94;4840445;29;20056;-76
2021/12/16 17:07:56;;;;;;;4.60;2.47;;;;;;;0.80;87.40;98362.44;4824781;29;20057;-70
2021/12/16 17:10:38;;;;;;;6.55;3.58;;;;;;;0.74;87.19;98374.13;4825421;29;20049;-67
2021/12/16 17:13:14;;;;;;;5.53;2.60;;;;;;;0.79;87.37;98368.63;4825955;29;20401;-73
2021/12/16 17:17:11;;;;;;;2.38;1.70;;;;;;;0.75;87.09;98369.72;4825211;29;20034;-72
2021/12/16 17:18:42;;;;;;;4.13;2.72;;;;;;;0.70;87.11;98368.16;4825185;29;20196;-65
2021/12/16 17:21:12;;;;;;;6.30;2.67;;;;;;;0.63;86.87;98371.19;4824568;29;20052;-73
2021/12/16 17:23:38;;;;;;;6.30;2.83;;;;;;;0.54;86.61;98363.81;4827422;29;20053;-74
2021/12/16 17:26:22;;;;;;;2.75;2.28;;;;;;;0.51;86.20;98362.19;4835534;29;20132;-72
2021/12/16 17:28:57;;;;;;;4.57;2.22;;;;;;;0.46;86.63;98365.97;4819229;29;20971;-73
2021/12/16 17:31:45;;;;;;;3.83;2.42;;;;;;;0.47;86.89;98359.78;4851868;29;20045;-78
2021/12/16 17:34:28;;;;;;;2.78;2.05;;;;;;;0.47;87.45;98358.03;4838493;29;20131;-78
2021/12/16 17:36:57;;;;;;;3.17;2.10;;;;;;;0.42;87.79;98361.81;4853047;29;20531;-72
2021/12/16 17:39:29;;;;;;;5.57;2.97;;;;;;;0.42;88.29;98356.56;4834826;29;20079;-72
2021/12/16 17:42:26;;;;;;;2.58;2.25;;;;;;;0.56;88.86;98359.34;4820741;29;20044;-73
2021/12/16 17:44:56;;;;;;;5.90;2.50;;;;;;;0.55;88.48;98360.28;4853445;29;20053;-78
2021/12/16 17:47:24;;;;;;;4.72;2.38;;;;;;;0.55;88.26;98358.50;4841438;29;20122;-73
2021/12/16 17:49:50;;;;;;;3.45;2.55;;;;;;;0.53;88.46;98354.25;4848112;29;20060;-78
2021/12/16 17:52:22;;;;;;;7.93;2.78;;;;;;;0.56;88.53;98349.69;4863790;29;20457;-71
2021/12/16 17:54:52;;;;;;;3.33;2.70;;;;;;;0.54;88.69;98345.47;4855643;29;20407;-76
2021/12/16 17:57:28;;;;;;;2.53;2.33;;;;;;;0.61;88.49;98349.44;4863265;29;20049;-72
2021/12/16 17:59:57;;;;;;;5.03;2.58;;;;;;;0.56;88.66;98348.84;4863679;29;20059;-76
2021/12/16 18:02:24;;;;;;;3.33;2.65;;;;;;;0.58;88.64;98347.81;4846981;29;20415;-74
2021/12/16 18:04:54;;;;;;;3.92;2.88;;;;;;;0.64;88.61;98351.91;4830539;29;20076;-76
2021/12/16 18:07:23;;;;;;;5.25;3.20;;;;;;;0.64;88.46;98346.69;4829542;29;20041;-71
2021/12/16 18:09:49;;;;;;;3.97;2.55;;;;;;;0.68;88.64;98346.41;4862041;29;20044;-71
2021/12/16 18:12:24;;;;;;;5.68;3.08;;;;;;;0.65;88.43;98340.50;4830634;29;20116;-73
2021/12/16 18:15:05;;;;;;;3.75;2.75;;;;;;;0.66;88.58;98339.59;4844359;29;20055;-76
2021/12/16 18:17:34;;;;;;;2.55;2.33;;;;;;;0.72;88.80;98341.88;4860883;29;20087;-71
2021/12/16 18:20:14;;;;;;;4.63;2.70;;;;;;;0.75;88.78;98341.72;4862182;29;20423;-71
2021/12/16 18:22:42;;;;;;;2.65;2.45;;;;;;;0.80;88.44;98323.94;4846128;29;20059;-77
2021/12/16 18:25:13;;;;;;;4.25;2.70;;;;;;;0.88;88.37;98332.28;4845385;29;20053;-71
2021/12/16 18:27:57;;;;;;;4.55;3.28;;;;;;;0.93;88.51;98334.63;4860404;29;20049;-71
2021/12/16 18:30:35;;;;;;;6.28;4.38;;;;;;;0.84;88.48;98330.72;4843416;29;20052;-72
2021/12/16 18:33:06;;;;;;;7.03;4.43;;;;;;;0.86;88.20;98334.13;4860271;29;20068;-68
2021/12/16 18:35:40;;;;;;;5.32;3.30;;;;;;;0.95;88.24;98332.78;4860195;29;20040;-67
2021/12/16 18:38:19;;;;;;;5.60;3.07;;;;;;;0.86;87.97;98339.38;4860625;29;20063;-67
2021/12/16 18:40:47;;;;;;;5.05;3.40;;;;;;;0.84;87.96;98332.50;4859802;29;20048;-68
2021/12/16 18:43:14;;;;;;;4.75;3.42;;;;;;;0.82;88.53;98340.44;4860530;29;20061;-73
2021/12/16 18:45:43;;;;;;;3.97;2.40;;;;;;;0.81;88.21;98336.13;4861243;29;20049;-73
2021/12/16 18:48:19;;;;;;;4.82;2.92;;;;;;;0.87;88.56;98335.81;4860636;29;20092;-71
2021/12/16 18:56:08;;;;;;;4.18;2.85;;;;;;;0.88;88.22;98334.91;4836289;29;20566;-75
2021/12/16 18:58:35;;;;;;;3.72;2.83;;;;;;;1.01;88.60;98329.84;4865298;29;20056;-68
2021/12/16 19:01:10;;;;;;;3.15;2.63;;;;;;;1.14;88.40;98322.97;4848559;29;20047;-71
2021/12/16 19:03:35;;;;;;;4.07;3.20;;;;;;;1.17;88.18;98325.44;4847764;29;20118;-69
2021/12/16 19:06:01;;;;;;;4.32;3.13;;;;;;;1.14;88.16;98327.38;4849000;29;20499;-69
2021/12/16 19:08:26;;;;;;;3.42;2.88;;;;;;;1.18;88.32;98328.91;4863992;29;20419;-68
2021/12/16 19:10:52;;;;;;;8.00;3.20;;;;;;;1.15;88.09;98321.19;4848090;29;20079;-74
2021/12/16 19:13:30;;;;;;;5.88;3.80;;;;;;;1.20;87.84;98327.91;4865255;29;20555;-74
2021/12/16 19:15:55;;;;;;;4.78;3.38;;;;;;;1.26;87.89;98331.97;4865277;29;20116;-74
2021/12/16 19:18:22;;;;;;;7.78;3.42;;;;;;;1.23;88.07;98329.53;4865560;29;20476;-73
2021/12/16 19:20:49;;;;;;;7.85;3.85;;;;;;;1.23;87.50;98330.38;4825800;29;20104;-72
2021/12/16 19:23:19;;;;;;;6.93;4.70;;;;;;;1.27;87.42;98334.50;4854418;29;20052;-74
2021/12/16 19:25:49;;;;;;;5.55;3.70;;;;;;;1.27;87.81;98333.66;4831385;29;20484;-74
2021/12/16 19:28:14;;;;;;;7.25;4.88;;;;;;;1.22;87.40;98333.06;4835321;29;20499;-73
2021/12/16 19:30:43;;;;;;;4.80;3.28;;;;;;;1.29;87.82;98330.03;4837022;29;20049;-74
2021/12/16 19:33:10;;;;;;;4.88;3.42;;;;;;;1.35;87.77;98334.94;4820836;29;20475;-74
2021/12/16 19:35:37;;;;;;;6.50;4.05;;;;;;;1.37;87.53;98345.34;4835387;29;20036;-74
2021/12/16 19:38:02;;;;;;;5.78;3.60;;;;;;;1.41;88.05;98339.84;4828553;29;20507;-73
2021/12/16 19:40:30;;;;;;;7.43;4.07;;;;;;;1.41;87.57;98341.63;4834175;29;20040;-75
2021/12/16 19:42:58;;;;;;;6.43;4.22;;;;;;;1.35;87.57;98349.84;4835918;29;20501;-74
2021/12/16 19:45:26;;;;;;;5.32;3.80;;;;;;;1.40;87.64;98339.94;4819317;29;20037;-74
2021/12/16 19:47:54;;;;;;;5.13;3.80;;;;;;;1.41;87.31;98339.84;4835252;29;20523;-74
2021/12/16 19:50:22;;;;;;;6.80;4.95;;;;;;;1.42;87.32;98341.53;4835369;29;20198;-73
2021/12/16 19:52:47;;;;;;;8.52;3.30;;;;;;;1.47;87.66;98343.91;4842036;29;20052;-74
2021/12/16 19:55:15;;;;;;;7.03;3.75;;;;;;;1.47;87.23;98336.03;4846405;29;20041;-73
2021/12/16 19:57:46;;;;;;;4.32;3.75;;;;;;;1.45;87.25;98336.13;4844959;29;20504;-74
2021/12/16 20:00:18;;;;;;;4.82;3.78;;;;;;;1.46;87.12;98336.97;4846074;29;20377;-73
2021/12/16 20:02:44;;;;;;;4.80;3.55;;;;;;;1.52;87.44;98339.25;4846316;29;20100;-74
2021/12/16 20:05:10;;;;;;;5.85;4.25;;;;;;;1.42;87.12;98349.44;4829874;29;20423;-73
2021/12/16 20:07:39;;;;;;;5.25;3.67;;;;;;;1.45;87.39;98351.03;4842739;29;20794;-72
2021/12/16 20:10:09;;;;;;;5.28;3.55;;;;;;;1.54;86.92;98355.78;4845030;29;20055;-74
2021/12/16 20:12:37;;;;;;;5.45;4.15;;;;;;;1.54;86.88;98341.78;4843338;29;20071;-76
2021/12/16 20:15:10;;;;;;;5.22;4.05;;;;;;;1.51;87.31;98342.81;4844436;29;20419;-75
2021/12/16 20:17:37;;;;;;;4.60;3.80;;;;;;;1.52;86.89;98334.00;4845692;29;20076;-73
2021/12/16 20:20:19;;;;;;;5.72;3.92;;;;;;;1.52;86.71;98336.63;4846127;29;20049;-72
2021/12/16 20:22:45;;;;;;;4.75;3.88;;;;;;;1.57;86.61;98336.38;4845517;29;20128;-75
2021/12/16 20:25:15;;;;;;;5.57;4.40;;;;;;;1.58;86.97;98344.16;4845184;29;20052;-75
2021/12/16 20:27:49;;;;;;;6.15;4.18;;;;;;;1.62;86.74;98350.94;4845211;29;20053;-76
2021/12/16 20:30:20;;;;;;;4.38;3.45;;;;;;;1.65;86.83;98342.91;4847811;29;20064;-74
2021/12/16 20:33:03;;;;;;;5.38;3.85;;;;;;;1.63;87.05;98350.00;4845399;29;20457;-75
2021/12/16 20:35:39;;;;;;;4.32;3.20;;;;;;;1.60;86.53;98346.69;4844651;29;20045;-76
2021/12/16 20:38:08;;;;;;;6.18;3.33;;;;;;;1.51;86.50;98360.34;4845011;29;20080;-75
2021/12/16 20:40:44;;;;;;;4.88;3.13;;;;;;;1.62;86.76;98352.72;4843187;29;20762;-74
2021/12/16 20:43:14;;;;;;;4.93;3.40;;;;;;;1.57;87.09;98354.78;4841689;29;20063;-68
2021/12/16 20:45:48;;;;;;;2.80;2.40;;;;;;;1.54;87.03;98360.19;4826131;29;20058;-70
2021/12/16 20:48:19;;;;;;;6.57;3.50;;;;;;;1.51;87.03;98370.84;4825486;29;20071;-69
2021/12/16 20:50:48;;;;;;;6.35;4.07;;;;;;;1.55;86.89;98373.22;4825918;29;20092;-72
2021/12/16 20:53:21;;;;;;;3.65;2.83;;;;;;;1.56;86.75;98379.34;4824680;29;20056;-71
2021/12/16 20:55:47;;;;;;;4.97;3.28;;;;;;;1.60;87.10;98373.81;4809613;29;20045;-71
2021/12/16 20:58:17;;;;;;;5.50;3.10;;;;;;;1.67;87.04;98385.69;4824938;29;20045;-70
2021/12/16 21:00:47;;;;;;;3.90;2.90;;;;;;;1.66;87.42;98383.16;4825651;29;20048;-71
2021/12/16 21:03:14;;;;;;;3.50;2.90;;;;;;;1.68;87.16;98395.28;4825918;29;20145;-71
2021/12/16 21:05:46;;;;;;;6.28;3.55;;;;;;;1.61;87.12;98390.41;4824017;29;20041;-69
2021/12/16 21:08:13;;;;;;;4.22;3.30;;;;;;;1.59;87.11;98390.50;4823598;29;20156;-75
2021/12/16 21:10:38;;;;;;;5.40;2.95;;;;;;;1.65;87.02;98395.44;4823375;29;20953;-71
2021/12/16 21:13:03;;;;;;;3.65;2.05;;;;;;;1.66;87.16;98397.13;4826177;29;20045;-69
2021/12/16 21:15:28;;;;;;;6.53;3.40;;;;;;;1.69;87.23;98391.69;4826421;29;20124;-69
2021/12/16 21:17:53;;;;;;;3.10;2.30;;;;;;;1.68;87.38;98392.63;4822470;29;20053;-69
2021/12/16 21:20:21;;;;;;;3.22;2.70;;;;;;;1.75;87.29;98395.75;4823723;29;20548;-70
2021/12/16 21:22:46;;;;;;;3.50;2.33;;;;;;;1.75;86.77;98390.50;4824021;29;20049;-70
2021/12/16 21:25:14;;;;;;;4.40;2.70;;;;;;;1.79;87.04;98386.78;4830000;29;20102;-74
2021/12/16 21:27:41;;;;;;;3.60;2.60;;;;;;;1.82;86.94;98391.84;4842794;29;20057;-65
2021/12/16 21:30:11;;;;;;;2.88;2.17;;;;;;;1.85;86.82;98389.06;4842564;29;20147;-69
2021/12/16 21:32:36;;;;;;;2.78;2.00;;;;;;;1.76;86.43;98400.94;4842267;29;20494;-67
2021/12/16 21:35:06;;;;;;;5.25;2.70;;;;;;;1.74;86.50;98392.28;4842543;29;20041;-68
2021/12/16 21:37:32;;;;;;;3.17;2.58;;;;;;;1.74;86.82;98396.69;4843625;29;20688;-69
2021/12/16 21:39:57;;;;;;;3.75;2.50;;;;;;;1.76;86.56;98400.94;4860450;29;20151;-68
2021/12/16 21:42:26;;;;;;;3.80;2.58;;;;;;;1.82;87.13;98403.22;4854162;29;20075;-70
2021/12/16 21:44:54;;;;;;;3.80;2.33;;;;;;;1.80;86.65;98407.72;4852606;29;20567;-66
2021/12/16 21:47:19;;;;;;;2.97;2.38;;;;;;;1.83;86.73;98404.91;4848580;29;20048;-67
2021/12/16 21:49:46;;;;;;;4.30;2.70;;;;;;;1.80;86.44;98401.63;4835284;29;20040;-67
2021/12/16 21:52:11;;;;;;;3.92;2.25;;;;;;;1.80;87.00;98394.59;4850201;29;20166;-67
2021/12/16 21:54:35;;;;;;;2.60;2.00;;;;;;;1.80;86.65;98394.59;4857828;29;20124;-67
2021/12/16 21:57:01;;;;;;;2.40;1.70;;;;;;;1.82;87.04;98405.84;4847401;29;20658;-67
2021/12/16 21:59:26;;;;;;;2.85;2.20;;;;;;;1.85;86.74;98402.19;4842174;29;20452;-67
2021/12/16 22:01:52;;;;;;;2.10;1.70;;;;;;;1.86;87.25;98414.41;4829975;29;20071;-68
2021/12/16 22:04:17;;;;;;;3.58;1.67;;;;;;;1.88;86.66;98416.94;4841863;29;20049;-67
2021/12/16 22:06:42;;;;;;;2.78;1.80;;;;;;;1.87;86.93;98417.88;4813719;29;20049;-68
2021/12/16 22:09:08;;;;;;;2.67;1.80;;;;;;;1.90;86.82;98417.72;4859838;29;20527;-67
2021/12/16 22:11:33;;;;;;;3.17;2.20;;;;;;;1.91;86.38;98412.38;4855013;29;20809;-69
2021/12/16 22:13:59;;;;;;;1.27;1.23;;;;;;;1.91;86.73;98412.38;4855043;29;20511;-66
2021/12/16 22:16:27;;;;;;;2.33;1.48;;;;;;;1.93;86.35;98420.16;4827991;29;20048;-67
2021/12/16 22:18:54;;;;;;;3.88;2.22;;;;;;;1.97;86.77;98416.44;4819827;29;20041;-69
2021/12/16 22:21:33;;;;;;;3.25;1.92;;;;;;;1.95;86.23;98413.03;4851315;29;20045;-67
2021/12/16 22:23:59;;;;;;;4.50;2.42;;;;;;;1.92;86.18;98421.94;4853286;29;20079;-68
2021/12/16 22:26:25;;;;;;;5.60;2.75;;;;;;;1.96;86.41;98430.50;4860196;29;20056;-68
2021/12/16 22:28:52;;;;;;;4.75;2.67;;;;;;;1.95;86.29;98413.88;4842047;29;20421;-68
2021/12/16 22:31:22;;;;;;;2.10;1.95;;;;;;;2.01;86.59;98418.81;4826130;29;20572;-68
2021/12/16 22:33:49;;;;;;;3.05;2.22;;;;;;;1.95;86.29;98424.41;4814288;29;20045;-68
2021/12/16 22:36:15;;;;;;;1.58;1.48;;;;;;;1.95;85.81;98408.63;4846307;29;20049;-67
2021/12/16 22:38:40;;;;;;;4.43;2.17;;;;;;;1.80;86.22;98428.75;4831911;29;20061;-68
2021/12/16 22:41:08;;;;;;;2.63;1.98;;;;;;;1.78;86.25;98420.09;4848672;29;20144;-67
2021/12/16 22:43:33;;;;;;;4.10;2.58;;;;;;;1.83;86.62;98419.81;4835634;29;20503;-67
2021/12/16 22:45:58;;;;;;;2.25;2.05;;;;;;;1.81;86.39;98422.53;4829501;29;20533;-68
2021/12/16 22:48:30;;;;;;;2.20;1.83;;;;;;;1.83;86.50;98423.28;4846645;29;20036;-67
2021/12/16 22:50:56;;;;;;;2.45;2.20;;;;;;;1.74;86.41;98429.06;4846766;29;20075;-75
2021/12/16 22:53:22;;;;;;;3.17;2.08;;;;;;;1.73;86.41;98426.53;4848816;29;20124;-75
2021/12/16 22:55:47;;;;;;;1.70;1.55;;;;;;;1.74;86.37;98431.69;4830886;29;20041;-76
2021/12/16 22:58:12;;;;;;;3.63;2.15;;;;;;;1.75;86.49;98432.53;4815552;29;20057;-74